createdAt,value
2022-08-18T00:00:12.343Z,8.600
2022-08-18T00:02:07.255Z,8.899
2022-08-18T00:04:21.747Z,8.399
2022-08-18T00:05:07.473Z,8.899
2022-08-18T00:06:07.633Z,8.600
2022-08-18T00:07:07.143Z,8.899
2022-08-18T00:09:07.368Z,9.100
2022-08-18T00:11:07.213Z,8.800
2022-08-18T00:12:07.459Z,9.600
2022-08-18T00:13:06.880Z,9.100
2022-08-18T00:14:07.261Z,8.5
2022-08-18T00:15:07.799Z,8.699
2022-08-18T00:16:07.268Z,9
2022-08-18T00:17:07.628Z,9.199
2022-08-18T00:18:07.022Z,9.300
2022-08-18T00:20:07.615Z,9.399
2022-08-18T00:21:07.049Z,9.199
2022-08-18T00:22:07.051Z,9.800
2022-08-18T00:23:07.097Z,9.199
2022-08-18T00:24:06.981Z,8.800
2022-08-18T00:25:07.278Z,9.399
2022-08-18T00:26:07.320Z,8.399
2022-08-18T00:27:07.528Z,9.100
2022-08-18T00:28:07.354Z,9
2022-08-18T00:29:07.248Z,8.5
2022-08-18T00:30:07.484Z,9.300
2022-08-18T00:31:06.929Z,8.699
2022-08-18T00:32:07.421Z,8.5
2022-08-18T00:33:06.947Z,8.399
2022-08-18T00:34:07.048Z,8.699
2022-08-18T00:35:07.053Z,9
2022-08-18T00:36:07.186Z,8.399
2022-08-18T00:37:07.368Z,8.300
2022-08-18T00:38:07.342Z,8.600
2022-08-18T00:40:07.439Z,9
2022-08-18T00:42:07.024Z,8.5
2022-08-18T00:43:07.333Z,8.300
2022-08-18T00:44:07.260Z,9
2022-08-18T00:45:08.018Z,8.399
2022-08-18T00:46:07.041Z,8.5
2022-08-18T00:47:07.115Z,8.699
2022-08-18T00:48:07.237Z,8.899
2022-08-18T00:49:06.884Z,8.399
2022-08-18T00:50:07.203Z,9.199
2022-08-18T00:51:07.031Z,9.300
2022-08-18T00:52:07.295Z,9.800
2022-08-18T00:53:07.237Z,9.199
2022-08-18T00:54:07.279Z,9.5
2022-08-18T00:57:07.395Z,9
2022-08-18T00:58:07.506Z,9.899
2022-08-18T00:59:07.584Z,9.300
2022-08-18T01:00:07.933Z,9.899
2022-08-18T01:01:07.477Z,10
2022-08-18T01:02:07.630Z,10.10
2022-08-18T01:03:07.196Z,9.199
2022-08-18T01:04:07.215Z,9.600
2022-08-18T01:05:07.563Z,10.30
2022-08-18T01:06:07.616Z,10.5
2022-08-18T01:07:07.225Z,10.19
2022-08-18T01:08:07.258Z,10
2022-08-18T01:09:07.794Z,10.5
2022-08-18T01:10:07.133Z,10
2022-08-18T01:11:07.218Z,9.600
2022-08-18T01:12:44.985Z,10.30
2022-08-18T01:13:07.511Z,10.69
2022-08-18T01:14:07.425Z,10.10
2022-08-18T01:15:08.149Z,10.60
2022-08-18T01:16:06.807Z,10.19
2022-08-18T01:17:07.449Z,10
2022-08-18T01:18:07.307Z,10.39
2022-08-18T01:19:07.256Z,10.19
2022-08-18T01:20:07.538Z,11
2022-08-18T01:21:07.322Z,9.800
2022-08-18T01:22:07.625Z,10.80
2022-08-18T01:23:07.871Z,10.30
2022-08-18T01:24:07.216Z,10
2022-08-18T01:25:07.315Z,9.800
2022-08-18T01:26:07.687Z,10.10
2022-08-18T01:28:07.394Z,9.699
2022-08-18T01:29:07.809Z,9.5
2022-08-18T01:30:07.800Z,9.899
2022-08-18T01:31:07.075Z,9.800
2022-08-18T01:32:07.407Z,10.10
2022-08-18T01:33:07.763Z,10.30
2022-08-18T01:34:07.097Z,10.10
2022-08-18T01:35:07.239Z,9.699
2022-08-18T01:36:07.478Z,9.800
2022-08-18T01:37:07.194Z,10.5
2022-08-18T01:38:07.479Z,10.19
2022-08-18T01:41:22.913Z,9.899
2022-08-18T01:41:26.078Z,9.800
2022-08-18T01:42:07.197Z,10
2022-08-18T01:43:07.291Z,10.80
2022-08-18T01:44:07.313Z,10.69
2022-08-18T01:45:07.573Z,9.800
2022-08-18T01:46:07.723Z,10.80
2022-08-18T01:47:07.619Z,10.89
2022-08-18T01:49:07.084Z,10.5
2022-08-18T01:50:07.098Z,11.10
2022-08-18T01:51:07.491Z,10.10
2022-08-18T01:52:07.543Z,10.60
2022-08-18T01:54:07.691Z,11.10
2022-08-18T01:55:07.341Z,11.30
2022-08-18T01:56:07.372Z,11.10
2022-08-18T01:57:07.717Z,10.60
2022-08-18T01:58:07.104Z,10.89
2022-08-18T01:59:07.218Z,10.60
2022-08-18T02:00:08.073Z,10.80
2022-08-18T02:02:07.638Z,11
2022-08-18T02:03:07.588Z,11.30
2022-08-18T02:04:31.188Z,10.60
2022-08-18T02:05:07.624Z,10.69
2022-08-18T02:06:07.106Z,10
2022-08-18T02:07:07.819Z,10.5
2022-08-18T02:08:07.755Z,10.80
2022-08-18T02:09:07.389Z,11.19
2022-08-18T02:10:11.874Z,10.30
2022-08-18T02:11:07.597Z,10.89
2022-08-18T02:12:07.518Z,10.39
2022-08-18T02:13:07.695Z,10.89
2022-08-18T02:14:07.579Z,10.10
2022-08-18T02:15:07.745Z,10.39
2022-08-18T02:16:07.212Z,10.10
2022-08-18T02:17:07.528Z,10.69
2022-08-18T02:18:07.441Z,10.60
2022-08-18T02:19:07.484Z,10.69
2022-08-18T02:20:07.565Z,10
2022-08-18T02:21:10.163Z,10.30
2022-08-18T02:22:07.542Z,10.10
2022-08-18T02:23:07.723Z,9.800
2022-08-18T02:24:07.188Z,9.5
2022-08-18T02:25:07.686Z,9.800
2022-08-18T02:26:06.907Z,9.899
2022-08-18T02:27:06.984Z,9.699
2022-08-18T02:28:07.220Z,9.600
2022-08-18T02:29:07.365Z,9.899
2022-08-18T02:30:07.416Z,10.30
2022-08-18T02:31:07.438Z,10.69
2022-08-18T02:32:07.411Z,9.800
2022-08-18T02:33:07.532Z,9.600
2022-08-18T02:34:07.483Z,10.19
2022-08-18T02:35:09.499Z,10.69
2022-08-18T02:36:07.245Z,10.39
2022-08-18T02:37:09.910Z,10.10
2022-08-18T02:38:07.524Z,9.899
2022-08-18T02:39:07.310Z,9.600
2022-08-18T02:40:07.462Z,9.399
2022-08-18T02:41:07.215Z,10.89
2022-08-18T02:42:07.302Z,10.10
2022-08-18T02:43:07.382Z,10
2022-08-18T02:44:07.270Z,10.39
2022-08-18T02:45:07.746Z,9.699
2022-08-18T02:46:07.262Z,9.899
2022-08-18T02:48:07.401Z,9.699
2022-08-18T02:49:07.471Z,10.10
2022-08-18T02:50:07.795Z,10
2022-08-18T02:52:07.423Z,9.899
2022-08-18T02:53:07.468Z,9.800
2022-08-18T02:54:07.718Z,10.30
2022-08-18T02:55:07.282Z,10.5
2022-08-18T02:57:07.223Z,10.39
2022-08-18T02:58:07.239Z,10.80
2022-08-18T02:59:07.051Z,10
2022-08-18T03:00:07.758Z,9.199
2022-08-18T03:01:07.018Z,9.399
2022-08-18T03:02:07.387Z,9.800
2022-08-18T03:03:07.162Z,9.300
2022-08-18T03:04:07.252Z,10.30
2022-08-18T03:05:07.283Z,10.5
2022-08-18T03:06:06.893Z,9.800
2022-08-18T03:07:07.175Z,9.5
2022-08-18T03:08:07.243Z,10
2022-08-18T03:09:07.373Z,11.19
2022-08-18T03:10:32.679Z,11.10
2022-08-18T03:11:07.463Z,11.39
2022-08-18T03:12:07.338Z,12.39
2022-08-18T03:13:07.230Z,11.60
2022-08-18T03:14:11.245Z,11.39
2022-08-18T03:15:07.189Z,11.60
2022-08-18T03:16:07.198Z,11.30
2022-08-18T03:17:07.516Z,11.89
2022-08-18T03:18:07.492Z,12
2022-08-18T03:19:07.305Z,11
2022-08-18T03:20:07.163Z,11.60
2022-08-18T03:21:07.658Z,11.19
2022-08-18T03:22:18.748Z,12.39
2022-08-18T03:23:09.752Z,12.5
2022-08-18T03:24:09.287Z,11.69
2022-08-18T03:25:07.466Z,12.39
2022-08-18T03:26:07.380Z,12.60
2022-08-18T03:27:07.390Z,13.19
2022-08-18T03:28:07.643Z,12.89
2022-08-18T03:29:06.905Z,13
2022-08-18T03:30:11.301Z,12.60
2022-08-18T03:31:06.987Z,13
2022-08-18T03:32:07.183Z,12.60
2022-08-18T03:33:07.216Z,12.89
2022-08-18T03:34:07.591Z,13.10
2022-08-18T03:35:07.849Z,12.30
2022-08-18T03:36:07.317Z,12.60
2022-08-18T03:37:07.455Z,13.10
2022-08-18T03:39:07.505Z,12.69
2022-08-18T03:40:07.780Z,12.5
2022-08-18T03:41:07.238Z,13.10
2022-08-18T03:42:07.242Z,12.60
2022-08-18T03:43:49.459Z,12.80
2022-08-18T03:44:06.765Z,11.80
2022-08-18T03:45:13.273Z,12.5
2022-08-18T03:46:06.871Z,12.19
2022-08-18T03:47:06.894Z,12.60
2022-08-18T03:48:06.737Z,11.80
2022-08-18T03:49:07.554Z,12.60
2022-08-18T03:50:07.642Z,12.89
2022-08-18T03:51:06.926Z,12.19
2022-08-18T03:52:06.982Z,13
2022-08-18T03:53:07.176Z,12.89
2022-08-18T03:54:07.188Z,13
2022-08-18T03:55:07.188Z,12.39
2022-08-18T03:56:07.283Z,12.19
2022-08-18T03:57:07.714Z,12.39
2022-08-18T03:58:07.809Z,11.89
2022-08-18T03:59:06.905Z,12.60
2022-08-18T04:00:07.848Z,13.39
2022-08-18T04:01:07.529Z,13.60
2022-08-18T04:02:07.662Z,14.5
2022-08-18T04:03:07.168Z,14.39
2022-08-18T04:04:07.409Z,13.60
2022-08-18T04:05:07.182Z,13.39
2022-08-18T04:06:12.139Z,13.60
2022-08-18T04:08:07.604Z,13.5
2022-08-18T04:09:07.784Z,13.19
2022-08-18T04:10:07.182Z,13.89
2022-08-18T04:11:07.981Z,13.30
2022-08-18T04:12:07.430Z,13.69
2022-08-18T04:14:07.484Z,14.19
2022-08-18T04:15:07.358Z,13.5
2022-08-18T04:16:07.588Z,14
2022-08-18T04:17:07.393Z,13.69
2022-08-18T04:18:08.129Z,13.60
2022-08-18T04:19:07.030Z,13.69
2022-08-18T04:20:07.020Z,14.39
2022-08-18T04:21:07.326Z,15
2022-08-18T04:22:07.453Z,14.69
2022-08-18T04:23:07.284Z,14.30
2022-08-18T04:24:07.532Z,15.10
2022-08-18T04:25:07.860Z,15.60
2022-08-18T04:26:07.051Z,14.89
2022-08-18T04:27:07.036Z,15.5
2022-08-18T04:28:07.176Z,16.20
2022-08-18T04:29:07.349Z,15.10
2022-08-18T04:30:07.750Z,16.20
2022-08-18T04:31:09.217Z,15.39
2022-08-18T04:32:07.741Z,15.80
2022-08-18T04:33:07.129Z,15.5
2022-08-18T04:34:07.465Z,14.10
2022-08-18T04:35:12.302Z,15.19
2022-08-18T04:36:07.807Z,14.80
2022-08-18T04:37:07.101Z,15.19
2022-08-18T04:38:07.171Z,15.5
2022-08-18T04:39:07.397Z,15
2022-08-18T04:40:07.882Z,15.39
2022-08-18T04:41:06.786Z,14.69
2022-08-18T04:42:07.000Z,15.19
2022-08-18T04:43:07.064Z,14.60
2022-08-18T04:45:07.613Z,14.19
2022-08-18T04:46:07.682Z,15.19
2022-08-18T04:47:06.963Z,15.10
2022-08-18T04:48:07.255Z,15.30
2022-08-18T04:50:07.335Z,14.60
2022-08-18T04:51:07.249Z,14.69
2022-08-18T04:52:37.547Z,14.5
2022-08-18T04:53:07.307Z,15.19
2022-08-18T04:54:07.366Z,14.80
2022-08-18T04:55:07.604Z,14.60
2022-08-18T04:56:07.819Z,13.60
2022-08-18T04:57:06.893Z,14.60
2022-08-18T04:58:07.108Z,14.69
2022-08-18T04:59:07.376Z,14.60
2022-08-18T05:00:08.194Z,14.30
2022-08-18T05:01:07.511Z,14.39
2022-08-18T05:02:10.260Z,15
2022-08-18T05:03:07.213Z,15.39
2022-08-18T05:04:07.158Z,14.19
2022-08-18T05:05:07.283Z,15.10
2022-08-18T05:07:07.815Z,15.5
2022-08-18T05:08:06.969Z,14.10
2022-08-18T05:09:07.139Z,14.39
2022-08-18T05:10:07.500Z,14.5
2022-08-18T05:11:07.656Z,15
2022-08-18T05:12:07.002Z,13.89
2022-08-18T05:13:07.442Z,13.69
2022-08-18T05:14:07.453Z,14.19
2022-08-18T05:16:11.811Z,14.89
2022-08-18T05:17:07.595Z,13.69
2022-08-18T05:18:07.666Z,13.5
2022-08-18T05:19:08.005Z,14.10
2022-08-18T05:20:07.418Z,13.39
2022-08-18T05:22:07.598Z,13.89
2022-08-18T05:23:07.405Z,14
2022-08-18T05:24:07.533Z,13.60
2022-08-18T05:25:07.772Z,14.60
2022-08-18T05:26:07.542Z,13.89
2022-08-18T05:27:07.807Z,13.60
2022-08-18T05:28:07.049Z,13.5
2022-08-18T05:29:18.164Z,14.89
2022-08-18T05:30:08.343Z,15.10
2022-08-18T05:31:13.122Z,14.30
2022-08-18T05:33:07.788Z,14.89
2022-08-18T05:34:06.959Z,13.5
2022-08-18T05:35:07.181Z,14.19
2022-08-18T05:36:07.591Z,14.30
2022-08-18T05:37:08.259Z,15.10
2022-08-18T05:38:07.606Z,14.5
2022-08-18T05:39:08.607Z,14.69
2022-08-18T05:40:11.425Z,14.19
2022-08-18T05:41:07.287Z,14
2022-08-18T05:42:07.264Z,14.30
2022-08-18T05:43:07.325Z,13.69
2022-08-18T05:44:07.360Z,14.5
2022-08-18T05:45:07.672Z,14.10
2022-08-18T05:46:07.267Z,13.80
2022-08-18T05:47:07.530Z,14.10
2022-08-18T05:48:07.503Z,14
2022-08-18T05:49:07.559Z,13.89
2022-08-18T05:50:07.765Z,14
2022-08-18T05:51:07.029Z,13.89
2022-08-18T05:52:07.215Z,14.69
2022-08-18T05:53:12.534Z,14.89
2022-08-18T05:54:07.441Z,14.19
2022-08-18T05:55:07.841Z,13.89
2022-08-18T05:56:07.192Z,15.19
2022-08-18T05:57:07.683Z,15.10
2022-08-18T05:58:07.361Z,14.60
2022-08-18T05:59:07.378Z,14.39
2022-08-18T06:00:08.649Z,14.10
2022-08-18T06:01:07.769Z,14.30
2022-08-18T06:02:07.429Z,14.39
2022-08-18T06:03:07.328Z,14.5
2022-08-18T06:04:07.586Z,14.30
2022-08-18T06:05:07.365Z,14.39
2022-08-18T06:07:07.300Z,14.30
2022-08-18T06:08:07.618Z,14.19
2022-08-18T06:09:07.700Z,15
2022-08-18T06:10:07.186Z,14.39
2022-08-18T06:11:07.607Z,14.10
2022-08-18T06:12:07.012Z,13.80
2022-08-18T06:13:07.238Z,14.60
2022-08-18T06:14:07.482Z,15.19
2022-08-18T06:15:08.061Z,14.30
2022-08-18T06:16:07.522Z,13.89
2022-08-18T06:17:07.357Z,15
2022-08-18T06:18:07.408Z,15.60
2022-08-18T06:19:07.651Z,15.10
2022-08-18T06:20:07.962Z,15.5
2022-08-18T06:21:07.122Z,15.80
2022-08-18T06:22:07.251Z,15.30
2022-08-18T06:23:07.397Z,16.60
2022-08-18T06:24:07.459Z,16
2022-08-18T06:25:07.569Z,16.20
2022-08-18T06:26:07.453Z,17.5
2022-08-18T06:27:07.650Z,19
2022-08-18T06:28:07.697Z,18.29
2022-08-18T06:29:07.234Z,19.10
2022-08-18T06:30:07.847Z,17.29
2022-08-18T06:31:07.191Z,19.5
2022-08-18T06:33:07.558Z,19.89
2022-08-18T06:34:07.607Z,21.20
2022-08-18T06:35:07.087Z,21
2022-08-18T06:36:07.225Z,21.70
2022-08-18T06:37:07.283Z,22
2022-08-18T06:38:07.511Z,22.60
2022-08-18T06:39:08.000Z,22.29
2022-08-18T06:40:07.497Z,23.29
2022-08-18T06:41:07.817Z,23.70
2022-08-18T06:42:07.506Z,23.29
2022-08-18T06:43:07.688Z,24.89
2022-08-18T06:44:07.200Z,26.20
2022-08-18T06:45:07.752Z,26
2022-08-18T06:46:07.402Z,25.5
2022-08-18T06:47:07.563Z,27.10
2022-08-18T06:48:15.636Z,27
2022-08-18T06:49:07.408Z,27.10
2022-08-18T06:50:07.913Z,26.60
2022-08-18T06:51:07.308Z,27.89
2022-08-18T06:52:07.388Z,27.20
2022-08-18T06:53:07.385Z,26.10
2022-08-18T06:54:07.491Z,25.5
2022-08-18T06:55:07.650Z,24.89
2022-08-18T06:56:25.804Z,26
2022-08-18T06:57:07.009Z,25.29
2022-08-18T06:58:07.135Z,25.79
2022-08-18T06:59:07.140Z,25.39
2022-08-18T07:00:08.141Z,26.39
2022-08-18T07:01:07.787Z,26.79
2022-08-18T07:02:07.589Z,25.89
2022-08-18T07:03:07.367Z,25.29
2022-08-18T07:04:07.638Z,24.39
2022-08-18T07:05:07.237Z,27.10
2022-08-18T07:06:07.338Z,25.39
2022-08-18T07:07:07.364Z,26.60
2022-08-18T07:08:07.676Z,26.29
2022-08-18T07:09:07.141Z,26.60
2022-08-18T07:10:07.291Z,27.20
2022-08-18T07:11:07.494Z,26.70
2022-08-18T07:12:07.790Z,26.20
2022-08-18T07:14:16.209Z,25.20
2022-08-18T07:15:07.778Z,24.70
2022-08-18T07:16:07.263Z,24.89
2022-08-18T07:17:07.452Z,24.70
2022-08-18T07:18:07.661Z,24.20
2022-08-18T07:19:07.657Z,24.60
2022-08-18T07:20:26.191Z,23.70
2022-08-18T07:21:07.578Z,23.79
2022-08-18T07:22:07.725Z,24.60
2022-08-18T07:23:07.896Z,25.29
2022-08-18T07:24:23.158Z,24.60
2022-08-18T07:25:07.455Z,24.10
2022-08-18T07:26:07.704Z,24.79
2022-08-18T07:27:07.329Z,25.5
2022-08-18T07:28:07.746Z,25.70
2022-08-18T07:29:07.185Z,25.10
2022-08-18T07:30:07.795Z,25.89
2022-08-18T07:31:17.070Z,25.10
2022-08-18T07:32:09.468Z,24.70
2022-08-18T07:33:07.663Z,25.10
2022-08-18T07:34:07.763Z,24.39
2022-08-18T07:35:07.947Z,24.60
2022-08-18T07:36:07.038Z,24.79
2022-08-18T07:37:07.421Z,24.39
2022-08-18T07:38:24.856Z,24.79
2022-08-18T07:39:07.362Z,21.29
2022-08-18T07:40:07.857Z,21.70
2022-08-18T07:41:07.427Z,22.39
2022-08-18T07:42:07.544Z,21.5
2022-08-18T07:43:07.916Z,22.20
2022-08-18T07:44:12.950Z,20.60
2022-08-18T07:45:07.396Z,21.10
2022-08-18T07:46:07.837Z,22
2022-08-18T07:47:07.282Z,20.70
2022-08-18T07:48:27.512Z,21.5
2022-08-18T07:49:07.714Z,23
2022-08-18T07:51:08.784Z,22.70
2022-08-18T07:52:14.601Z,22.5
2022-08-18T07:53:07.434Z,22.20
2022-08-18T07:54:07.126Z,22.70
2022-08-18T07:55:07.469Z,21.79
2022-08-18T07:56:07.519Z,22.29
2022-08-18T07:57:07.794Z,21.60
2022-08-18T07:58:07.318Z,21.29
2022-08-18T07:59:07.493Z,22.39
2022-08-18T08:00:10.512Z,21.79
2022-08-18T08:01:07.184Z,22.20
2022-08-18T08:02:07.523Z,22
2022-08-18T08:03:07.153Z,22.39
2022-08-18T08:04:07.362Z,22.70
2022-08-18T08:05:07.407Z,22.79
2022-08-18T08:06:08.017Z,21.89
2022-08-18T08:08:07.005Z,22.20
2022-08-18T08:09:07.544Z,20.29
2022-08-18T08:10:07.720Z,19.5
2022-08-18T08:11:07.161Z,20.5
2022-08-18T08:12:07.201Z,19.29
2022-08-18T08:13:09.656Z,20.10
2022-08-18T08:14:07.555Z,20.20
2022-08-18T08:15:08.323Z,19.39
2022-08-18T08:16:07.385Z,20.89
2022-08-18T08:17:07.974Z,19.60
2022-08-18T08:19:12.385Z,19.20
2022-08-18T08:20:07.285Z,19.29
2022-08-18T08:21:07.666Z,18.89
2022-08-18T08:22:07.123Z,19.29
2022-08-18T08:23:07.689Z,20.79
2022-08-18T08:24:07.342Z,20.89
2022-08-18T08:26:08.524Z,19.5
2022-08-18T08:27:07.441Z,21.5
2022-08-18T08:28:07.603Z,20.89
2022-08-18T08:29:08.031Z,20.29
2022-08-18T08:30:08.227Z,21
2022-08-18T08:31:33.072Z,20.70
2022-08-18T08:32:07.757Z,21.10
2022-08-18T08:33:07.157Z,21.29
2022-08-18T08:34:07.414Z,21.5
2022-08-18T08:35:10.423Z,21.70
2022-08-18T08:36:07.401Z,21.89
2022-08-18T08:38:23.252Z,23.39
2022-08-18T08:39:07.157Z,21.60
2022-08-18T08:40:07.986Z,23.20
2022-08-18T08:41:07.585Z,23
2022-08-18T08:42:31.844Z,23.5
2022-08-18T08:43:07.556Z,22.79
2022-08-18T08:44:07.170Z,23.79
2022-08-18T08:45:08.156Z,22
2022-08-18T08:46:07.410Z,22.89
2022-08-18T08:47:07.386Z,21.29
2022-08-18T08:48:09.555Z,21.39
2022-08-18T08:49:07.390Z,21.5
2022-08-18T08:50:07.673Z,22.5
2022-08-18T08:52:07.331Z,22.39
2022-08-18T08:53:07.558Z,22.79
2022-08-18T08:54:07.755Z,22.10
2022-08-18T08:55:07.153Z,20.89
2022-08-18T08:56:07.090Z,21
2022-08-18T08:57:09.847Z,20.89
2022-08-18T08:58:07.297Z,21.39
2022-08-18T08:59:07.652Z,20.79
2022-08-18T09:00:08.513Z,21.39
2022-08-18T09:01:07.735Z,21.20
2022-08-18T09:02:07.311Z,21
2022-08-18T09:03:07.378Z,22.10
2022-08-18T09:04:07.415Z,21.79
2022-08-18T09:05:09.381Z,21.29
2022-08-18T09:07:07.626Z,23.20
2022-08-18T09:08:07.003Z,21.5
2022-08-18T09:09:07.555Z,21.89
2022-08-18T09:10:07.608Z,22.10
2022-08-18T09:11:07.795Z,22.79
2022-08-18T09:12:07.127Z,21.70
2022-08-18T09:13:07.298Z,22.60
2022-08-18T09:14:07.474Z,23.10
2022-08-18T09:15:08.104Z,20.70
2022-08-18T09:16:12.196Z,20
2022-08-18T09:17:07.555Z,19.89
2022-08-18T09:18:07.349Z,20.29
2022-08-18T09:19:07.486Z,19.5
2022-08-18T09:20:07.838Z,20
2022-08-18T09:21:07.285Z,19.5
2022-08-18T09:22:07.366Z,19.70
2022-08-18T09:23:07.594Z,19.79
2022-08-18T09:24:07.014Z,19.39
2022-08-18T09:25:07.473Z,19.29
2022-08-18T09:26:07.872Z,19.79
2022-08-18T09:27:21.472Z,21.5
2022-08-18T09:28:10.824Z,21.39
2022-08-18T09:29:07.772Z,20.89
2022-08-18T09:30:07.331Z,20
2022-08-18T09:31:09.098Z,19.39
2022-08-18T09:32:11.336Z,19.5
2022-08-18T09:33:18.552Z,19.29
2022-08-18T09:34:07.450Z,20.89
2022-08-18T09:35:07.433Z,18.60
2022-08-18T09:36:10.157Z,20.5
2022-08-18T09:37:07.745Z,18.79
2022-08-18T09:38:07.217Z,17.39
2022-08-18T09:39:08.020Z,19.39
2022-08-18T09:40:10.852Z,18.89
2022-08-18T09:41:07.310Z,18.70
2022-08-18T09:42:07.157Z,18
2022-08-18T09:43:07.601Z,17.60
2022-08-18T09:46:07.487Z,18.10
2022-08-18T09:47:07.437Z,17.70
2022-08-18T09:48:10.106Z,17.39
2022-08-18T09:49:08.424Z,18.5
2022-08-18T09:50:09.170Z,18.70
2022-08-18T09:51:07.343Z,16.5
2022-08-18T09:52:07.672Z,16.70
2022-08-18T09:53:07.291Z,17.39
2022-08-18T09:54:07.532Z,17.5
2022-08-18T09:55:07.804Z,17
2022-08-18T09:56:07.199Z,16.5
2022-08-18T09:58:07.685Z,16.79
2022-08-18T09:59:09.837Z,17.5
2022-08-18T10:00:08.301Z,16.29
2022-08-18T10:01:07.090Z,16.89
2022-08-18T10:02:14.216Z,16.70
2022-08-18T10:03:07.526Z,15.89
2022-08-18T10:04:06.967Z,16.70
2022-08-18T10:05:07.665Z,16.39
2022-08-18T10:07:07.342Z,16.20
2022-08-18T10:08:07.674Z,14.89
2022-08-18T10:10:18.478Z,16.10
2022-08-18T10:11:09.659Z,14.89
2022-08-18T10:13:07.219Z,14.5
2022-08-18T10:14:07.803Z,15
2022-08-18T10:15:07.485Z,14.89
2022-08-18T10:16:10.896Z,13.69
2022-08-18T10:17:23.580Z,14
2022-08-18T10:18:07.712Z,14.30
2022-08-18T10:19:07.681Z,14
2022-08-18T10:20:07.222Z,13.60
2022-08-18T10:21:07.777Z,14.30
2022-08-18T10:23:07.912Z,13.69
2022-08-18T10:25:22.233Z,13.69
2022-08-18T10:26:11.427Z,12.60
2022-08-18T10:27:07.190Z,13.10
2022-08-18T10:28:07.335Z,13.19
2022-08-18T10:29:07.246Z,14
2022-08-18T10:30:07.879Z,13.30
2022-08-18T10:31:10.307Z,13
2022-08-18T10:33:18.009Z,12.30
2022-08-18T10:35:07.766Z,12.89
2022-08-18T10:36:07.553Z,12.30
2022-08-18T10:37:07.272Z,11.89
2022-08-18T10:38:07.325Z,12.19
2022-08-18T10:39:07.640Z,13.30
2022-08-18T10:40:07.344Z,12.39
2022-08-18T10:41:15.338Z,12.30
2022-08-18T10:42:07.231Z,11.69
2022-08-18T10:43:26.824Z,12.80
2022-08-18T10:44:21.105Z,12.19
2022-08-18T10:45:07.542Z,13
2022-08-18T10:46:24.902Z,13.30
2022-08-18T10:47:12.157Z,12.39
2022-08-18T10:48:11.953Z,13
2022-08-18T10:49:08.861Z,12
2022-08-18T10:51:07.498Z,12.69
2022-08-18T10:52:07.672Z,12.89
2022-08-18T10:54:07.718Z,12.30
2022-08-18T10:56:07.648Z,12.19
2022-08-18T10:57:07.139Z,11.5
2022-08-18T10:59:07.274Z,11.89
2022-08-18T11:00:08.423Z,12
2022-08-18T11:02:07.677Z,11.19
2022-08-18T11:03:42.618Z,13.5
2022-08-18T11:04:14.060Z,12.39
2022-08-18T11:05:07.958Z,12.80
2022-08-18T11:06:14.501Z,12.89
2022-08-18T11:07:08.374Z,12.19
2022-08-18T11:08:15.734Z,12.30
2022-08-18T11:09:07.769Z,12.69
2022-08-18T11:10:29.460Z,13.30
2022-08-18T11:11:33.031Z,12.39
2022-08-18T11:13:08.850Z,12.80
2022-08-18T11:14:07.811Z,12
2022-08-18T11:15:23.288Z,13.10
2022-08-18T11:17:07.566Z,12.69
2022-08-18T11:18:10.337Z,12.10
2022-08-18T11:19:07.583Z,12.60
2022-08-18T11:20:07.509Z,13
2022-08-18T11:21:08.231Z,13.39
2022-08-18T11:22:07.353Z,14.80
2022-08-18T11:24:07.710Z,13.69
2022-08-18T11:25:07.935Z,15.60
2022-08-18T11:26:07.260Z,14.89
2022-08-18T11:27:15.202Z,15.10
2022-08-18T11:28:07.786Z,14.69
2022-08-18T11:29:07.489Z,15.39
2022-08-18T11:31:07.772Z,15
2022-08-18T11:32:09.277Z,15.69
2022-08-18T11:33:07.132Z,15.39
2022-08-18T11:34:07.304Z,17
2022-08-18T11:35:07.612Z,14.80
2022-08-18T11:36:07.430Z,15.69
2022-08-18T11:38:07.694Z,16.39
2022-08-18T11:39:07.371Z,16.29
2022-08-18T11:40:09.610Z,16.60
2022-08-18T11:41:09.488Z,16.39
2022-08-18T11:42:07.451Z,16.29
2022-08-18T11:43:07.924Z,16.89
2022-08-18T11:44:08.037Z,17.5
2022-08-18T11:45:07.876Z,18
2022-08-18T11:46:07.650Z,17.39
2022-08-18T11:47:07.998Z,18.10
2022-08-18T11:48:22.018Z,17.10
2022-08-18T11:49:07.559Z,16.89
2022-08-18T11:50:07.466Z,17.29
2022-08-18T11:51:07.515Z,17.39
2022-08-18T11:52:07.297Z,18.39
2022-08-18T11:53:07.740Z,17.70
2022-08-18T11:54:07.405Z,16.89
2022-08-18T11:55:16.338Z,17.10
2022-08-18T11:57:10.098Z,17.60
2022-08-18T11:58:12.688Z,17.39
2022-08-18T11:59:07.207Z,17.10
2022-08-18T12:00:22.661Z,18
2022-08-18T12:02:07.698Z,17.79
2022-08-18T12:03:07.391Z,18.29
2022-08-18T12:04:26.330Z,18.70
2022-08-18T12:06:07.749Z,18.39
2022-08-18T12:07:07.805Z,19.10
2022-08-18T12:09:07.615Z,18.39
2022-08-18T12:11:26.857Z,19.10
2022-08-18T12:12:07.697Z,18.70
2022-08-18T12:13:07.195Z,19.29
2022-08-18T12:14:31.435Z,19.10
2022-08-18T12:15:17.218Z,18.79
2022-08-18T12:17:07.195Z,18.60
2022-08-18T12:18:07.225Z,19
2022-08-18T12:19:07.160Z,18.89
2022-08-18T12:20:07.513Z,17.89
2022-08-18T12:21:07.298Z,18.20
2022-08-18T12:22:11.780Z,19.79
2022-08-18T12:25:12.172Z,18.39
2022-08-18T12:26:07.102Z,18.20
2022-08-18T12:27:20.524Z,17.60
2022-08-18T12:28:10.868Z,18.39
2022-08-18T12:29:08.684Z,18.79
2022-08-18T12:30:07.566Z,18.20
2022-08-18T12:31:17.052Z,18
2022-08-18T12:32:08.499Z,18.39
2022-08-18T12:33:12.421Z,19.29
2022-08-18T12:34:07.350Z,18.29
2022-08-18T12:35:09.371Z,18.20
2022-08-18T12:36:07.404Z,17.5
2022-08-18T12:37:34.020Z,17.20
2022-08-18T12:38:13.889Z,18
2022-08-18T12:39:07.349Z,16.5
2022-08-18T12:40:08.621Z,17.60
2022-08-18T12:41:07.320Z,16.70
2022-08-18T12:42:07.392Z,16.60
2022-08-18T12:43:07.747Z,18.60
2022-08-18T12:44:13.165Z,17.79
2022-08-18T12:45:07.580Z,17.20
2022-08-18T12:46:07.398Z,17.39
2022-08-18T12:47:07.452Z,17.79
2022-08-18T12:48:07.235Z,17
2022-08-18T12:49:07.482Z,17.20
2022-08-18T12:50:07.382Z,18.10
2022-08-18T12:51:07.976Z,17.29
2022-08-18T12:52:07.598Z,18.70
2022-08-18T12:53:07.501Z,17.79
2022-08-18T12:54:07.468Z,17.5
2022-08-18T12:56:08.561Z,17.89
2022-08-18T12:57:07.048Z,19.70
2022-08-18T12:58:07.270Z,19.39
2022-08-18T12:59:07.587Z,19.5
2022-08-18T13:00:08.113Z,18.79
2022-08-18T13:01:07.684Z,18.89
2022-08-18T13:02:07.440Z,18.60
2022-08-18T13:03:07.469Z,18.89
2022-08-18T13:04:11.416Z,16.10
2022-08-18T13:06:07.586Z,17.5
2022-08-18T13:07:07.391Z,16.60
2022-08-18T13:08:12.437Z,15.89
2022-08-18T13:09:16.223Z,17.39
2022-08-18T13:10:07.655Z,17.70
2022-08-18T13:11:14.632Z,18.79
2022-08-18T13:12:12.670Z,16.79
2022-08-18T13:13:07.408Z,16
2022-08-18T13:14:08.920Z,15.69
2022-08-18T13:15:07.889Z,17
2022-08-18T13:16:07.109Z,17.20
2022-08-18T13:17:13.147Z,16.10
2022-08-18T13:18:07.426Z,17.20
2022-08-18T13:19:07.603Z,17.79
2022-08-18T13:21:07.591Z,17.60
2022-08-18T13:22:07.417Z,18.39
2022-08-18T13:23:08.462Z,18
2022-08-18T13:24:07.435Z,17.60
2022-08-18T13:25:07.605Z,19.10
2022-08-18T13:26:08.760Z,17.79
2022-08-18T13:27:13.633Z,17.60
2022-08-18T13:28:07.631Z,15.80
2022-08-18T13:29:10.150Z,18.5
2022-08-18T13:30:16.805Z,17.60
2022-08-18T13:31:07.852Z,18.5
2022-08-18T13:32:07.426Z,18.89
2022-08-18T13:33:34.504Z,19
2022-08-18T13:34:07.167Z,20.89
2022-08-18T13:35:09.059Z,22.10
2022-08-18T13:36:07.285Z,21.5
2022-08-18T13:37:07.711Z,22.29
2022-08-18T13:38:17.048Z,21.29
2022-08-18T13:39:07.857Z,22.5
2022-08-18T13:40:07.737Z,20.79
2022-08-18T13:41:07.440Z,19.10
2022-08-18T13:42:26.220Z,19.39
2022-08-18T13:43:09.253Z,18.10
2022-08-18T13:44:07.746Z,18.79
2022-08-18T13:45:22.692Z,18.29
2022-08-18T13:46:09.191Z,18.79
2022-08-18T13:47:07.970Z,17.29
2022-08-18T13:48:07.433Z,16.20
2022-08-18T13:49:07.433Z,15.80
2022-08-18T13:51:08.134Z,15
2022-08-18T13:52:12.154Z,15.69
2022-08-18T13:53:07.636Z,16
2022-08-18T13:54:28.877Z,16.60
2022-08-18T13:55:08.358Z,16.20
2022-08-18T13:56:07.566Z,14.60
2022-08-18T13:57:07.571Z,16.10
2022-08-18T13:58:17.414Z,14.69
2022-08-18T13:59:07.258Z,15.19
2022-08-18T14:00:18.027Z,16.39
2022-08-18T14:01:42.120Z,16.89
2022-08-18T14:03:07.905Z,16.60
2022-08-18T14:04:07.537Z,17.39
2022-08-18T14:05:07.497Z,16.10
2022-08-18T14:06:07.758Z,16.39
2022-08-18T14:07:10.376Z,15.80
2022-08-18T14:08:10.001Z,16.89
2022-08-18T14:09:19.769Z,17.5
2022-08-18T14:10:07.983Z,15.89
2022-08-18T14:11:07.422Z,16.79
2022-08-18T14:12:15.816Z,16.10